Airfield :
LOGIN :

Register | Disclaimer

   EN    FR    IT 

 










Legend :    VFR   Marginal VFR   IFR   Intensive IFR   Very Intensive IFR
Visi :
Ceiling :
>= 8 km
>= 3000ft
5 to 8 km
1000 to 3000 ft
1500m to 5 km
500 to 1000 ft
800 to 1500m
200 to 500 ft
< 800m
< 200 ft
Symbols :   Thunderstorms  Fog  Heavy snow  Heavy precipitations  Wind > 20 kt
SIGMETs :     Misc.  Thunderstorms  Icing  Turbulence  Mountain Waves  Volcanic Ashes






- Airport Elevation : 26 ft
- IATA code : GLA


EGPF - Glasgow

CURRENT METAR :
  • 230950Z AUTO 18013KT 9999 BKN033 12/08 Q1015

EXPIRED METARs :
  • 230920Z AUTO 18011KT 9999 BKN033 11/08 Q1016
  • 230850Z AUTO 16011KT 130V190 9999 OVC036 11/08 Q1016
  • 230820Z AUTO 16010KT 130V190 9999 BKN036 11/07 Q1016
  • 230750Z AUTO 16008KT 120V200 9999 BKN033 10/07 Q1016
  • 230720Z AUTO 17012KT 9999 BKN031 OVC038 10/07 Q1016

TAF TAF EGPF
Valid from the 23 at 06:00 until the 24 at 06:00 UTC


230459Z 2306/2406 19005KT 9999 SCT025
PROB40
TEMPO 2306/2308 7000 -RADZ BKN014
BECMG 2307/2310 19015KT
TEMPO 2312/2406 20018G32KT
TEMPO 2315/2406 7000 -RA BKN012
PROB40
TEMPO 2317/2403 4000 RA BKN009
PROB40
TEMPO 2403/2406 2500 +RA SHRA BKN008
ATIS : +44 141 887 7449



MET'MAP, your aeronautical weather chart ! - Copyright ORBIFLY December 2007 - Disclaimer

ORBIFLY MET'MAP TEAM :

Programming & Development : Alexandra Zaïnal
Concept & original design : Baudouin d'Aumeries
Assistance for programming : Marc-Olivier Méhu
Technical & hardware support : Manuel Goepfert

Contact : metmap@orbifly.com




SOURCES & CREDITS :

   NOAA